首页
METAR-TAF:

METAR-TAF

机场 :

卡尔加里Springbank, 艾伯塔, 加拿大

纬度: 51-06N, 经度: 114-22W, 海拔: 1200米

当前天气观测

该预报发布于39分钟前的18:00 UTC
风速11节,风向北转西北,有时为17节阵风
温度 5°C
湿度 22%
气压 1002 hPa
能見度: 14.5公里
多云层高于9100英尺

METAR: CYBW 101800Z AUTO 34011G17KT 9SM BKN091 05/M15 A2958 RMK SLP056 DENSITY ALT 4100FT

时间: 12:39 (18:39 UTC)

预报

该预报发布于1小时和0分钟前的17:39 UTC
预报有效从10日的 18点(UTC)到 11日的 04点(UTC)
风速12节,风向西转西北
能見度: 10公里
少量云层高于8000英尺
多云层高于18000英尺
从 10日的 2000点(UTC)
风速12节,风向北转西北,有时为22节阵风
能見度: 10公里
散云层高于6000英尺
多云层高于15000英尺
短暂存在
从 10日的 20点(UTC)到 11日的 02点(UTC)
能見度: 10公里
散云层高于4000英尺, 积雨云.
多云层高于6000英尺
小阵雨, 附近有雷暴
从 11日的 0200点(UTC)
风速12节,风向,有时为22节阵风
能見度: 10公里
散云层高于6000英尺
多云层高于20000英尺
短暂存在
从 11日的 02点(UTC)到 11日的 04点(UTC)
能見度: 3.2公里
散云层高于2500英尺
多云层高于6000英尺
小阵雪, 雨, 轻雾

TAF: CYBW 101739Z 1018/1104 30012KT P6SM FEW080 BKN180 FM102000 34012G22KT P6SM SCT060 BKN150 TEMPO 1020/1102 P6SM -SHRA VCTS SCT040CB BKN060 FM110200 36012G22KT P6SM SCT060 BKN200 TEMPO 1102/1104 2SM -SHSNRA BR SCT025 BKN060 RMK FCST BASED ON AUTO OBS. NXT FCST BY 110000Z

超过4000个机场的气象观测和天气预报(METAR&TAF报告)。

可查询的气象台以黄色和红色小点在地图上表示。

将鼠标移到小点上方,可查看气象台名称。

然后点击查看天气观测和预报。

如需切换地图:点击带黑十字的绿色按钮放大地图;点击带横线的绿色按钮缩小地图;或者点击绿色箭头查看邻近地区的地图。


METAR-TAF: